Time,TemperatureF,DewpointF,PressureIn,WindDirection,WindDirectionDegrees,WindSpeedMPH,WindSpeedGustMPH,Humidity,HourlyPrecipIn,Conditions,Clouds,dailyrainin,SoftwareType,DateUTC
2013-09-10 00:13:00,61.0,60.0,30.08,SSE,160,3.0,5.0,98,0.00,,,-99.99,,2013-09-10 04:13:00,
2013-09-10 00:24:00,61.0,60.0,30.08,SSE,160,3.0,5.0,98,0.00,,,-99.99,,2013-09-10 04:24:00,
2013-09-10 00:34:00,61.0,60.0,30.08,SSE,160,3.0,5.0,98,0.00,,,-99.99,,2013-09-10 04:34:00,
2013-09-10 00:53:00,61.0,60.0,30.08,SW,215,4.0,4.0,98,0.00,,,-99.99,,2013-09-10 04:53:00,
2013-09-10 01:23:00,61.0,60.0,30.08,SE,143,3.0,8.0,98,0.00,,,-99.99,,2013-09-10 05:23:00,
2013-09-10 01:43:00,61.0,60.0,30.08,SSW,200,3.0,5.0,98,0.00,,,-99.99,,2013-09-10 05:43:00,
2013-09-10 01:53:00,61.0,60.0,30.08,SSW,200,3.0,5.0,98,0.00,,,-99.99,,2013-09-10 05:53:00,
2013-09-10 02:22:00,60.0,59.0,30.09,SSE,162,2.0,6.0,98,0.00,,,-99.99,,2013-09-10 06:22:00,
2013-09-10 02:52:00,60.0,60.0,30.09,ESE,114,1.0,4.0,99,0.00,,,-99.99,,2013-09-10 06:52:00,
2013-09-10 03:22:00,60.0,60.0,30.09,SE,143,1.0,4.0,99,0.00,,,-99.99,,2013-09-10 07:22:00,
2013-09-10 03:32:00,60.0,60.0,30.09,SE,143,1.0,4.0,99,0.00,,,-99.99,,2013-09-10 07:32:00,
2013-09-10 03:52:00,60.0,59.0,30.09,WSW,257,2.0,6.0,98,0.00,,,-99.99,,2013-09-10 07:52:00,
2013-09-10 04:02:00,60.0,59.0,30.09,WSW,257,2.0,6.0,98,0.00,,,-99.99,,2013-09-10 08:02:00,
2013-09-10 04:22:00,60.0,59.0,30.09,SW,231,5.0,5.0,98,0.00,,,-99.99,,2013-09-10 08:22:00,
2013-09-10 04:52:00,60.0,59.0,30.08,WSW,243,4.0,5.0,98,0.00,,,-99.99,,2013-09-10 08:52:00,
2013-09-10 05:02:00,60.0,59.0,30.08,WSW,243,4.0,5.0,98,0.00,,,-99.99,,2013-09-10 09:02:00,
2013-09-10 05:22:00,59.0,58.0,30.09,SW,221,1.0,3.0,98,0.00,,,-99.99,,2013-09-10 09:22:00,
2013-09-10 05:30:00,59.0,59.0,30.10,WSW,238,0.0,4.0,99,0.00,,,-99.99,,2013-09-10 09:30:00,
2013-09-10 05:33:00,59.0,58.0,30.09,SW,221,1.0,3.0,98,0.00,,,-99.99,,2013-09-10 09:33:00,
2013-09-10 05:54:00,59.0,59.0,30.10,WSW,238,0.0,4.0,99,0.00,,,-99.99,,2013-09-10 09:54:00,
2013-09-10 06:03:00,59.0,59.0,30.10,WSW,238,0.0,4.0,99,0.00,,,-99.99,,2013-09-10 10:03:00,
2013-09-10 06:13:00,59.0,59.0,30.10,WSW,238,0.0,4.0,99,0.00,,,-99.99,,2013-09-10 10:13:00,
2013-09-10 06:23:00,59.0,59.0,30.10,WSW,238,0.0,4.0,99,0.00,,,-99.99,,2013-09-10 10:23:00,
2013-09-10 06:53:00,58.0,58.0,30.11,South,173,0.0,2.0,99,0.00,,,-99.99,,2013-09-10 10:53:00,
2013-09-10 07:22:00,58.0,58.0,30.11,WSW,256,0.0,3.0,99,0.00,,,-99.99,,2013-09-10 11:22:00,
2013-09-10 07:52:00,57.0,57.0,30.12,SW,224,0.0,0.0,99,0.00,,,-99.99,,2013-09-10 11:52:00,
2013-09-10 08:02:00,57.0,57.0,30.12,SW,224,0.0,0.0,99,0.00,,,-99.99,,2013-09-10 12:02:00,
2013-09-10 08:22:00,58.0,58.0,30.12,WSW,246,0.0,1.0,99,0.00,,,-99.99,,2013-09-10 12:22:00,
2013-09-10 08:32:00,58.0,58.0,30.12,WSW,246,0.0,1.0,99,0.00,,,-99.99,,2013-09-10 12:32:00,
2013-09-10 08:52:00,60.0,59.0,30.13,West,260,0.0,3.0,97,0.00,,,-99.99,,2013-09-10 12:52:00,
2013-09-10 09:21:00,62.0,61.0,30.14,SW,224,0.0,3.0,95,0.00,,,-99.99,,2013-09-10 13:21:00,
2013-09-10 09:52:00,64.0,62.0,30.14,SSW,211,0.0,2.0,92,0.00,,,-99.99,,2013-09-10 13:52:00,
2013-09-10 10:22:00,67.0,63.0,30.15,West,262,1.0,3.0,88,0.00,,,-99.99,,2013-09-10 14:22:00,
2013-09-10 10:52:00,67.0,64.0,30.15,West,276,1.0,2.0,90,0.00,,,-99.99,,2013-09-10 14:52:00,
2013-09-10 11:12:00,70.0,65.0,30.16,WSW,249,0.0,1.0,85,0.00,,,-99.99,,2013-09-10 15:12:00,
2013-09-10 11:23:00,70.0,65.0,30.16,WSW,249,0.0,1.0,85,0.00,,,-99.99,,2013-09-10 15:23:00,
2013-09-10 11:34:00,70.0,65.0,30.16,WSW,249,0.0,1.0,85,0.00,,,-99.99,,2013-09-10 15:34:00,
2013-09-10 11:54:00,73.0,66.0,30.16,SW,233,1.0,3.0,79,0.00,,,-99.99,,2013-09-10 15:54:00,
2013-09-10 12:03:00,73.0,66.0,30.16,SW,233,1.0,3.0,79,0.00,,,-99.99,,2013-09-10 16:03:00,
2013-09-10 12:20:00,72.0,66.0,30.16,South,173,0.0,5.0,81,0.00,,,-99.99,,2013-09-10 16:20:00,
2013-09-10 12:23:00,72.0,65.0,30.17,East,91,0.0,4.0,80,0.00,,,-99.99,,2013-09-10 16:23:00,
2013-09-10 12:53:00,72.0,66.0,30.16,South,173,0.0,5.0,81,0.00,,,-99.99,,2013-09-10 16:53:00,
2013-09-10 13:03:00,72.0,66.0,30.16,South,173,0.0,5.0,81,0.00,,,-99.99,,2013-09-10 17:03:00,
2013-09-10 13:12:00,72.0,66.0,30.16,South,173,0.0,5.0,81,0.00,,,-99.99,,2013-09-10 17:12:00,
2013-09-10 13:53:00,69.0,66.0,30.16,ESE,104,0.0,3.0,89,0.00,,,-99.99,,2013-09-10 17:53:00,
2013-09-10 14:22:00,68.0,66.0,30.16,SSE,166,1.0,4.0,93,0.00,,,-99.99,,2013-09-10 18:22:00,
2013-09-10 14:32:00,68.0,66.0,30.16,SSE,166,1.0,4.0,93,0.00,,,-99.99,,2013-09-10 18:32:00,
2013-09-10 14:52:00,69.0,68.0,30.16,South,188,4.0,6.0,95,0.00,,,-99.99,,2013-09-10 18:52:00,
2013-09-10 15:02:00,69.0,68.0,30.16,South,188,4.0,6.0,95,0.00,,,-99.99,,2013-09-10 19:02:00,
2013-09-10 15:22:00,68.0,66.0,30.15,South,179,4.0,8.0,93,0.00,,,-99.99,,2013-09-10 19:22:00,
2013-09-10 15:32:00,68.0,66.0,30.15,South,179,4.0,8.0,93,0.00,,,-99.99,,2013-09-10 19:32:00,
2013-09-10 15:52:00,70.0,67.0,30.14,SSE,156,3.0,5.0,91,0.00,,,-99.99,,2013-09-10 19:52:00,
2013-09-10 16:22:00,70.0,67.0,30.14,SSE,156,6.0,7.0,89,0.00,,,-99.99,,2013-09-10 20:22:00,
2013-09-10 16:33:00,70.0,67.0,30.14,SSE,156,6.0,7.0,89,0.00,,,-99.99,,2013-09-10 20:33:00,
2013-09-10 16:52:00,69.0,65.0,30.13,SSE,165,2.0,10.0,88,0.00,,,-99.99,,2013-09-10 20:52:00,
2013-09-10 17:23:00,70.0,66.0,30.12,South,177,8.0,9.0,86,0.00,,,-99.99,,2013-09-10 21:23:00,
2013-09-10 17:54:00,70.0,66.0,30.11,SSE,158,2.0,8.0,86,0.00,,,-99.99,,2013-09-10 21:54:00,
2013-09-10 18:14:00,70.0,66.0,30.11,SSE,149,5.0,8.0,87,0.00,,,-99.99,,2013-09-10 22:14:00,
2013-09-10 18:24:00,70.0,66.0,30.11,SSE,149,5.0,8.0,87,0.00,,,-99.99,,2013-09-10 22:24:00,
2013-09-10 18:55:00,67.0,65.0,30.11,South,169,4.0,6.0,94,0.00,,,-99.99,,2013-09-10 22:55:00,
2013-09-10 19:20:00,66.0,65.0,30.11,SSW,197,3.0,5.0,96,0.00,,,-99.99,,2013-09-10 23:20:00,
2013-09-10 19:23:00,66.0,65.0,30.11,South,191,1.0,3.0,96,0.00,,,-99.99,,2013-09-10 23:23:00,
2013-09-10 19:34:00,66.0,65.0,30.11,South,191,1.0,3.0,96,0.00,,,-99.99,,2013-09-10 23:34:00,
2013-09-10 19:53:00,66.0,65.0,30.11,SSW,197,3.0,5.0,96,0.00,,,-99.99,,2013-09-10 23:53:00,
2013-09-10 20:02:00,66.0,65.0,30.11,SSW,197,3.0,5.0,96,0.00,,,-99.99,,2013-09-11 00:02:00,
2013-09-10 20:11:00,66.0,65.0,30.11,SSW,197,3.0,5.0,96,0.00,,,-99.99,,2013-09-11 00:11:00,
2013-09-10 20:52:00,64.0,63.0,30.13,WSW,256,3.0,4.0,98,0.00,,,-99.99,,2013-09-11 00:52:00,
2013-09-10 21:02:00,64.0,63.0,30.13,WSW,256,3.0,4.0,98,0.00,,,-99.99,,2013-09-11 01:02:00,
2013-09-10 21:11:00,64.0,63.0,30.13,WSW,256,3.0,4.0,98,0.00,,,-99.99,,2013-09-11 01:11:00,
2013-09-10 21:21:00,64.0,63.0,30.14,WSW,239,0.0,3.0,98,0.00,,,-99.99,,2013-09-11 01:21:00,
2013-09-10 21:53:00,64.0,63.0,30.15,WSW,252,1.0,7.0,97,0.00,,,-99.99,,2013-09-11 01:53:00,
2013-09-10 22:22:00,64.0,63.0,30.16,West,260,2.0,5.0,97,0.00,,,-99.99,,2013-09-11 02:22:00,
2013-09-10 22:52:00,63.0,62.0,30.16,WSW,240,0.0,3.0,98,0.00,,,-99.99,,2013-09-11 02:52:00,
2013-09-10 23:02:00,63.0,62.0,30.16,WSW,240,0.0,3.0,98,0.00,,,-99.99,,2013-09-11 03:02:00,
2013-09-10 23:22:00,62.0,61.0,30.17,WNW,295,2.0,4.0,98,0.00,,,-99.99,,2013-09-11 03:22:00,
2013-09-10 23:55:00,62.0,61.0,30.16,West,264,4.0,4.0,98,0.00,,,-99.99,,2013-09-11 03:55:00,